createdAt,value
2022-09-12T00:02:10.945Z,98819.84
2022-09-12T00:04:38.067Z,98821.78
2022-09-12T00:07:05.170Z,98832.56
2022-09-12T00:09:32.608Z,98832.44
2022-09-12T00:11:59.976Z,98843.66
2022-09-12T00:14:27.047Z,98833.69
2022-09-12T00:16:59.502Z,98847.44
2022-09-12T00:19:27.951Z,98847.06
2022-09-12T00:21:55.219Z,98841.03
2022-09-12T00:24:23.088Z,98836.59
2022-09-12T00:26:50.449Z,98826.53
2022-09-12T00:29:20.496Z,98821.69
2022-09-12T00:31:48.146Z,98823.25
2022-09-12T00:34:15.481Z,98821.28
2022-09-12T00:36:42.841Z,98817.25
2022-09-12T00:39:14.477Z,98829.25
2022-09-12T00:41:41.803Z,98828.44
2022-09-12T00:44:24.319Z,98821.31
2022-09-12T00:47:02.357Z,98804.53
2022-09-12T00:49:38.295Z,98804.50
2022-09-12T00:52:13.362Z,98798.84
2022-09-12T00:54:52.348Z,98796.47
2022-09-12T00:57:23.681Z,98814.03
2022-09-12T00:59:53.239Z,98811.13
2022-09-12T01:02:21.655Z,98809.16
2022-09-12T01:04:50.036Z,98808.34
2022-09-12T01:07:17.121Z,98814.28
2022-09-12T01:09:46.194Z,98820.28
2022-09-12T01:12:15.253Z,98809.00
2022-09-12T01:14:42.676Z,98811.34
2022-09-12T01:17:13.806Z,98812.88
2022-09-12T01:19:46.918Z,98824.03
2022-09-12T01:22:50.122Z,98821.69
2022-09-12T01:26:07.554Z,98815.31
2022-09-12T01:29:02.431Z,98808.94
2022-09-12T01:31:51.578Z,98805.78
2022-09-12T01:34:28.357Z,98812.09
2022-09-12T01:37:19.996Z,98813.63
2022-09-12T01:40:12.121Z,98803.25
2022-09-12T01:43:04.345Z,98807.28
2022-09-12T01:45:47.329Z,98782.56
2022-09-12T01:48:23.491Z,98787.41
2022-09-12T01:50:57.397Z,98782.94
2022-09-12T01:53:29.906Z,98784.94
2022-09-12T01:56:22.281Z,98774.84
2022-09-12T01:58:59.776Z,98770.81
2022-09-12T02:01:29.866Z,98763.31
2022-09-12T02:04:41.336Z,98760.78
2022-09-12T02:07:18.532Z,98767.56
2022-09-12T02:09:50.975Z,98758.34
2022-09-12T02:12:25.093Z,98763.50
2022-09-12T02:14:58.517Z,98753.59
2022-09-12T02:17:27.308Z,98755.19
2022-09-12T02:20:09.166Z,98762.44
2022-09-12T02:22:38.938Z,98767.66
2022-09-12T02:25:09.216Z,98754.00
2022-09-12T02:27:46.931Z,98765.16
2022-09-12T02:30:16.644Z,98757.28
2022-09-12T02:32:46.864Z,98729.19
2022-09-12T02:35:23.319Z,98741.75
2022-09-12T02:37:56.641Z,98744.19
2022-09-12T02:40:24.314Z,98737.38
2022-09-12T02:42:52.322Z,98744.06
2022-09-12T02:45:19.734Z,98746.47
2022-09-12T02:47:56.390Z,98747.25
2022-09-12T02:50:24.317Z,98741.34
2022-09-12T02:52:53.902Z,98751.22
2022-09-12T02:55:21.513Z,98752.41
2022-09-12T02:57:48.880Z,98747.31
2022-09-12T03:00:16.297Z,98749.63
2022-09-12T03:02:58.702Z,98760.00
2022-09-12T03:05:40.423Z,98764.78
2022-09-12T03:08:21.310Z,98765.50
2022-09-12T03:10:51.988Z,98770.94
2022-09-12T03:13:25.311Z,98767.34
2022-09-12T03:16:23.543Z,98769.72
2022-09-12T03:19:20.043Z,98766.94
2022-09-12T03:22:20.240Z,98765.63
2022-09-12T03:25:14.376Z,98763.22
2022-09-12T03:27:53.230Z,98768.03
2022-09-12T03:30:20.501Z,98765.59
2022-09-12T03:32:53.263Z,98770.78
2022-09-12T03:35:23.848Z,98757.56
2022-09-12T03:37:53.011Z,98777.47
2022-09-12T03:40:20.791Z,98773.47
2022-09-12T03:42:48.110Z,98763.88
2022-09-12T03:45:16.760Z,98757.81
2022-09-12T03:47:44.044Z,98776.59
2022-09-12T03:50:11.290Z,98759.78
2022-09-12T03:52:38.687Z,98769.75
2022-09-12T03:55:06.547Z,98775.25
2022-09-12T03:57:34.218Z,98779.13
2022-09-12T04:00:02.293Z,98780.25
2022-09-12T04:02:40.150Z,98774.66
2022-09-12T04:05:08.143Z,98768.16
2022-09-12T04:07:35.245Z,98770.94
2022-09-12T04:10:02.727Z,98771.38
2022-09-12T04:12:30.572Z,98780.09
2022-09-12T04:14:57.581Z,98783.66
2022-09-12T04:17:25.048Z,98790.47
2022-09-12T04:19:52.386Z,98786.78
2022-09-12T04:22:19.455Z,98790.31
2022-09-12T04:24:47.110Z,98789.56
2022-09-12T04:27:14.256Z,98779.56
2022-09-12T04:29:41.559Z,98792.66
2022-09-12T04:32:08.854Z,98807.00
2022-09-12T04:34:36.220Z,98809.41
2022-09-12T04:37:03.725Z,98811.25
2022-09-12T04:39:31.182Z,98812.84
2022-09-12T04:41:58.505Z,98812.00
2022-09-12T04:44:25.944Z,98820.13
2022-09-12T04:46:53.068Z,98832.84
2022-09-12T04:49:20.319Z,98832.91
2022-09-12T04:51:47.657Z,98831.72
2022-09-12T04:54:19.555Z,98838.47
2022-09-12T04:56:49.668Z,98815.34
2022-09-12T04:59:22.157Z,98826.16
2022-09-12T05:01:49.837Z,98826.34
2022-09-12T05:04:21.813Z,98819.13
2022-09-12T05:06:49.093Z,98825.84
2022-09-12T05:09:16.622Z,98831.84
2022-09-12T05:12:05.046Z,98826.66
2022-09-12T05:14:47.140Z,98834.03
2022-09-12T05:17:14.531Z,98813.97
2022-09-12T05:19:41.998Z,98832.50
2022-09-12T05:22:09.866Z,98849.25
2022-09-12T05:24:53.986Z,98830.94
2022-09-12T05:27:21.412Z,98822.88
2022-09-12T05:29:48.530Z,98848.06
2022-09-12T05:32:15.896Z,98846.69
2022-09-12T05:34:43.041Z,98842.72
2022-09-12T05:37:10.556Z,98845.19
2022-09-12T05:39:37.980Z,98828.75
2022-09-12T05:42:06.222Z,98840.16
2022-09-12T05:44:34.728Z,98839.06
2022-09-12T05:47:01.981Z,98843.84
2022-09-12T05:49:30.073Z,98831.56
2022-09-12T05:51:57.395Z,98845.53
2022-09-12T05:54:28.327Z,98828.06
2022-09-12T05:56:58.394Z,98826.94
2022-09-12T05:59:25.690Z,98840.19
2022-09-12T06:01:52.871Z,98838.63
2022-09-12T06:04:20.639Z,98850.22
2022-09-12T06:06:48.944Z,98834.72
2022-09-12T06:09:17.135Z,98847.94
2022-09-12T06:11:45.366Z,98837.94
2022-09-12T06:14:15.289Z,98841.94
2022-09-12T06:16:42.995Z,98859.09
2022-09-12T06:19:19.511Z,98841.19
2022-09-12T06:21:49.864Z,98860.91
2022-09-12T06:24:19.807Z,98855.00
2022-09-12T06:26:48.305Z,98855.50
2022-09-12T06:29:16.934Z,98863.94
2022-09-12T06:31:44.848Z,98855.16
2022-09-12T06:34:16.086Z,98870.34
2022-09-12T06:36:47.009Z,98863.59
2022-09-12T06:39:18.459Z,98861.22
2022-09-12T06:41:48.157Z,98868.31
2022-09-12T06:44:22.288Z,98875.91
2022-09-12T06:46:50.479Z,98866.19
2022-09-12T06:49:18.110Z,98869.41
2022-09-12T06:51:45.311Z,98873.81
2022-09-12T06:54:17.442Z,98870.69
2022-09-12T06:56:45.425Z,98865.97
2022-09-12T06:59:12.885Z,98874.03
2022-09-12T07:01:42.056Z,98862.94
2022-09-12T07:04:10.054Z,98870.63
2022-09-12T07:06:40.873Z,98871.97
2022-09-12T07:09:11.107Z,98868.34
2022-09-12T07:11:40.267Z,98870.44
2022-09-12T07:14:09.303Z,98862.47
2022-09-12T07:16:37.040Z,98858.91
2022-09-12T07:19:05.867Z,98859.38
2022-09-12T07:21:33.201Z,98854.25
2022-09-12T07:24:00.572Z,98854.63
2022-09-12T07:26:29.310Z,98865.53
2022-09-12T07:29:18.615Z,98862.72
2022-09-12T07:31:47.060Z,98857.97
2022-09-12T07:34:14.645Z,98869.16
2022-09-12T07:36:43.248Z,98862.03
2022-09-12T07:39:11.485Z,98866.06
2022-09-12T07:41:38.946Z,98862.09
2022-09-12T07:44:09.078Z,98848.91
2022-09-12T07:46:36.343Z,98854.09
2022-09-12T07:49:03.858Z,98857.34
2022-09-12T07:51:32.093Z,98856.53
2022-09-12T07:54:00.421Z,98862.94
2022-09-12T07:56:30.665Z,98848.13
2022-09-12T07:58:59.691Z,98862.16
2022-09-12T08:01:27.730Z,98853.41
2022-09-12T08:04:00.103Z,98851.44
2022-09-12T08:06:30.394Z,98850.66
2022-09-12T08:08:59.367Z,98863.03
2022-09-12T08:11:28.851Z,98869.00
2022-09-12T08:13:57.721Z,98847.84
2022-09-12T08:16:31.351Z,98846.25
2022-09-12T08:19:01.456Z,98848.63
2022-09-12T08:21:31.570Z,98841.41
2022-09-12T08:24:04.610Z,98839.00
2022-09-12T08:26:33.255Z,98843.00
2022-09-12T08:29:01.116Z,98842.22
2022-09-12T08:31:30.836Z,98837.81
2022-09-12T08:34:01.195Z,98851.00
2022-09-12T08:36:29.745Z,98844.59
2022-09-12T08:39:03.136Z,98833.81
2022-09-12T08:41:42.393Z,98836.59
2022-09-12T08:44:32.169Z,98836.59
2022-09-12T08:47:02.818Z,98830.59
2022-09-12T08:49:35.535Z,98830.19
2022-09-12T08:52:17.591Z,98829.81
2022-09-12T08:54:48.555Z,98827.41
2022-09-12T08:57:15.831Z,98829.41
2022-09-12T08:59:48.623Z,98825.00
2022-09-12T09:02:31.384Z,98823.78
2022-09-12T09:05:13.814Z,98814.97
2022-09-12T09:07:50.663Z,98819.75
2022-09-12T09:10:53.966Z,98805.34
2022-09-12T09:13:45.988Z,98813.31
2022-09-12T09:16:22.195Z,98825.28
2022-09-12T09:18:50.915Z,98800.03
2022-09-12T09:21:41.583Z,98813.28
2022-09-12T09:24:16.971Z,98814.09
2022-09-12T09:27:00.851Z,98803.69
2022-09-12T09:29:41.322Z,98825.75
2022-09-12T09:32:19.318Z,98806.56
2022-09-12T09:34:47.006Z,98802.13
2022-09-12T09:37:29.466Z,98800.44
2022-09-12T09:39:59.757Z,98805.13
2022-09-12T09:42:57.918Z,98793.84
2022-09-12T09:45:29.264Z,98800.22
2022-09-12T09:48:15.839Z,98791.00
2022-09-12T09:50:49.428Z,98797.75
2022-09-12T09:53:38.693Z,98802.41
2022-09-12T09:56:12.040Z,98772.69
2022-09-12T09:58:40.567Z,98807.38
2022-09-12T10:01:18.187Z,98791.72
2022-09-12T10:04:04.041Z,98798.41
2022-09-12T10:06:38.113Z,98778.84
2022-09-12T10:09:28.048Z,98788.34
2022-09-12T10:11:57.230Z,98789.25
2022-09-12T10:14:31.651Z,98780.78
2022-09-12T10:16:59.727Z,98769.91
2022-09-12T10:19:40.000Z,98796.44
2022-09-12T10:22:07.719Z,98785.88
2022-09-12T10:24:41.399Z,98776.94
2022-09-12T10:27:15.972Z,98782.78
2022-09-12T10:29:54.421Z,98773.53
2022-09-12T10:32:36.249Z,98784.34
2022-09-12T10:35:09.227Z,98794.16
2022-09-12T10:37:40.197Z,98775.28
2022-09-12T10:40:22.603Z,98785.78
2022-09-12T10:42:55.517Z,98782.75
2022-09-12T10:45:32.886Z,98787.03
2022-09-12T10:48:20.217Z,98769.38
2022-09-12T10:50:47.483Z,98769.28
2022-09-12T10:53:17.078Z,98785.75
2022-09-12T10:55:59.337Z,98743.00
2022-09-12T10:58:48.414Z,98783.59
2022-09-12T11:01:21.484Z,98779.03
2022-09-12T11:04:07.014Z,98782.03
2022-09-12T11:07:01.113Z,98787.84
2022-09-12T11:09:48.213Z,98786.56
2022-09-12T11:12:47.505Z,98782.91
2022-09-12T11:15:52.301Z,98779.97
2022-09-12T11:18:45.370Z,98775.59
2022-09-12T11:21:21.865Z,98778.88
2022-09-12T11:24:25.911Z,98767.69
2022-09-12T11:27:22.961Z,98774.97
2022-09-12T11:29:58.189Z,98775.47
2022-09-12T11:33:01.540Z,98765.59
2022-09-12T11:35:30.638Z,98768.44
2022-09-12T11:38:33.797Z,98755.75
2022-09-12T11:41:11.028Z,98766.59
2022-09-12T11:44:03.895Z,98766.16
2022-09-12T11:46:38.164Z,98755.97
2022-09-12T11:49:14.188Z,98752.91
2022-09-12T11:51:45.547Z,98747.66
2022-09-12T11:54:34.479Z,98747.81
2022-09-12T11:57:12.484Z,98747.66
2022-09-12T11:59:54.584Z,98743.16
2022-09-12T12:02:40.566Z,98726.66
2022-09-12T12:05:22.735Z,98750.41
2022-09-12T12:07:59.959Z,98746.53
2022-09-12T12:10:48.860Z,98747.28
2022-09-12T12:13:26.990Z,98751.81
2022-09-12T12:16:04.915Z,98735.56
2022-09-12T12:18:35.796Z,98739.03
2022-09-12T12:21:34.166Z,98729.03
2022-09-12T12:24:07.730Z,98744.06
2022-09-12T12:26:41.047Z,98738.97
2022-09-12T12:29:31.528Z,98749.03
2022-09-12T12:31:58.946Z,98749.88
2022-09-12T12:34:36.083Z,98753.41
2022-09-12T12:37:21.409Z,98751.50
2022-09-12T12:40:04.973Z,98731.91
2022-09-12T12:42:35.017Z,98742.91
2022-09-12T12:45:04.644Z,98723.53
2022-09-12T12:47:40.756Z,98732.63
2022-09-12T12:50:21.116Z,98712.97
2022-09-12T12:53:07.362Z,98720.69
2022-09-12T12:55:47.675Z,98716.94
2022-09-12T12:58:30.507Z,98737.38
2022-09-12T13:01:10.406Z,98731.72
2022-09-12T13:03:43.966Z,98736.81
2022-09-12T13:06:42.699Z,98745.03
2022-09-12T13:09:39.882Z,98736.66
2022-09-12T13:12:13.297Z,98738.59
2022-09-12T13:14:43.917Z,98735.69
2022-09-12T13:17:41.634Z,98731.97
2022-09-12T13:20:30.917Z,98725.41
2022-09-12T13:22:58.479Z,98724.16
2022-09-12T13:25:33.743Z,98720.50
2022-09-12T13:28:20.698Z,98715.50
2022-09-12T13:31:22.915Z,98717.84
2022-09-12T13:33:56.273Z,98720.09
2022-09-12T13:36:30.643Z,98728.09
2022-09-12T13:39:14.267Z,98725.84
2022-09-12T13:42:13.820Z,98726.88
2022-09-12T13:44:51.899Z,98718.81
2022-09-12T13:47:47.106Z,98725.91
2022-09-12T13:50:41.922Z,98720.94
2022-09-12T13:53:20.092Z,98726.75
2022-09-12T13:55:52.158Z,98724.13
2022-09-12T13:58:28.548Z,98724.13
2022-09-12T14:01:06.914Z,98724.63
2022-09-12T14:04:11.845Z,98720.34
2022-09-12T14:06:49.787Z,98733.22
2022-09-12T14:09:25.233Z,98722.53
2022-09-12T14:11:53.959Z,98717.44
2022-09-12T14:14:51.917Z,98720.59
2022-09-12T14:17:29.522Z,98712.75
2022-09-12T14:20:00.256Z,98724.88
2022-09-12T14:22:30.187Z,98726.53
2022-09-12T14:24:59.690Z,98707.44
2022-09-12T14:27:54.785Z,98719.22
2022-09-12T14:30:30.948Z,98728.56
2022-09-12T14:33:22.093Z,98724.97
2022-09-12T14:35:52.317Z,98730.19
2022-09-12T14:38:35.309Z,98727.88
2022-09-12T14:41:08.990Z,98732.75
2022-09-12T14:43:40.926Z,98731.06
2022-09-12T14:46:33.188Z,98734.69
2022-09-12T14:49:14.036Z,98724.31
2022-09-12T14:51:55.257Z,98717.91
2022-09-12T14:54:28.667Z,98723.91
2022-09-12T14:57:03.234Z,98716.75
2022-09-12T14:59:41.216Z,98719.59
2022-09-12T15:02:22.604Z,98720.41
2022-09-12T15:05:11.021Z,98714.84
2022-09-12T15:07:41.727Z,98718.81
2022-09-12T15:10:18.238Z,98720.84
2022-09-12T15:12:46.828Z,98720.81
2022-09-12T15:15:21.295Z,98710.03
2022-09-12T15:17:49.697Z,98716.50
2022-09-12T15:20:21.962Z,98718.13
2022-09-12T15:22:50.510Z,98707.44
2022-09-12T15:25:18.266Z,98721.50
2022-09-12T15:27:47.105Z,98721.47
2022-09-12T15:30:14.638Z,98722.34
2022-09-12T15:32:44.481Z,98707.06
2022-09-12T15:35:26.053Z,98716.56
2022-09-12T15:37:53.520Z,98711.84
2022-09-12T15:40:21.962Z,98708.59
2022-09-12T15:42:49.727Z,98709.03
2022-09-12T15:45:23.865Z,98710.25
2022-09-12T15:47:54.959Z,98715.94
2022-09-12T15:50:28.660Z,98715.25
2022-09-12T15:52:57.947Z,98714.50
2022-09-12T15:55:29.409Z,98707.75
2022-09-12T15:57:57.256Z,98716.19
2022-09-12T16:00:24.655Z,98716.16
2022-09-12T16:02:54.117Z,98701.81
2022-09-12T16:05:25.441Z,98703.41
2022-09-12T16:07:55.023Z,98707.41
2022-09-12T16:10:25.907Z,98707.47
2022-09-12T16:12:54.870Z,98704.69
2022-09-12T16:15:24.716Z,98713.97
2022-09-12T16:17:52.678Z,98714.75
2022-09-12T16:20:21.593Z,98718.38
2022-09-12T16:22:48.930Z,98727.66
2022-09-12T16:25:17.496Z,98728.91
2022-09-12T16:27:45.170Z,98732.13
2022-09-12T16:30:13.299Z,98738.13
2022-09-12T16:32:41.291Z,98723.34
2022-09-12T16:35:09.860Z,98734.16
2022-09-12T16:37:37.276Z,98732.16
2022-09-12T16:40:05.634Z,98743.75
2022-09-12T16:42:37.433Z,98738.59
2022-09-12T16:45:09.661Z,98743.00
2022-09-12T16:47:37.052Z,98753.41
2022-09-12T16:50:04.735Z,98754.22
2022-09-12T16:52:31.937Z,98749.44
2022-09-12T16:54:59.021Z,98753.44
2022-09-12T16:57:26.248Z,98763.88
2022-09-12T16:59:53.722Z,98767.47
2022-09-12T17:02:21.086Z,98756.69
2022-09-12T17:04:48.911Z,98768.28
2022-09-12T17:07:16.478Z,98759.88
2022-09-12T17:09:47.425Z,98761.88
2022-09-12T17:12:15.126Z,98758.66
2022-09-12T17:14:42.334Z,98771.06
2022-09-12T17:17:09.622Z,98773.03
2022-09-12T17:19:37.029Z,98781.44
2022-09-12T17:22:04.917Z,98792.22
2022-09-12T17:24:33.077Z,98793.00
2022-09-12T17:27:00.288Z,98791.78
2022-09-12T17:29:27.619Z,98791.78
2022-09-12T17:31:55.774Z,98779.78
2022-09-12T17:34:23.509Z,98797.38
2022-09-12T17:36:50.970Z,98796.16
2022-09-12T17:39:18.203Z,98802.97
2022-09-12T17:41:46.266Z,98808.16
2022-09-12T17:44:15.343Z,98808.16
2022-09-12T17:46:43.825Z,98796.13
2022-09-12T17:49:19.280Z,98805.72
2022-09-12T17:51:52.045Z,98808.47
2022-09-12T17:54:20.955Z,98810.03
2022-09-12T17:56:51.789Z,98820.41
2022-09-12T17:59:25.149Z,98815.56
2022-09-12T18:02:11.339Z,98818.34
2022-09-12T18:04:40.721Z,98799.94
2022-09-12T18:07:08.802Z,98821.94
2022-09-12T18:09:39.252Z,98809.13
2022-09-12T18:12:07.574Z,98812.72
2022-09-12T18:14:35.247Z,98815.91
2022-09-12T18:17:02.510Z,98814.69
2022-09-12T18:19:29.955Z,98827.50
2022-09-12T18:22:00.747Z,98813.47
2022-09-12T18:27:14.412Z,98826.22
2022-09-12T18:29:41.846Z,98820.22
2022-09-12T18:32:18.625Z,98829.41
2022-09-12T18:34:45.910Z,98840.97
2022-09-12T18:37:13.577Z,98848.56
2022-09-12T18:39:41.968Z,98861.78
2022-09-12T18:42:09.256Z,98853.00
2022-09-12T18:44:36.332Z,98855.44
2022-09-12T18:47:04.402Z,98854.66
2022-09-12T18:49:31.674Z,98854.25
2022-09-12T18:51:58.640Z,98853.84
2022-09-12T18:54:29.971Z,98857.84
2022-09-12T18:56:59.349Z,98853.94
2022-09-12T18:59:29.709Z,98849.91
2022-09-12T19:01:57.063Z,98869.53
2022-09-12T19:04:35.483Z,98851.97
2022-09-12T19:07:07.688Z,98861.94
2022-09-12T19:09:34.812Z,98861.16
2022-09-12T19:12:02.142Z,98854.75
2022-09-12T19:14:29.379Z,98866.34
2022-09-12T19:16:57.682Z,98863.53
2022-09-12T19:19:25.236Z,98866.72
2022-09-12T19:21:55.789Z,98846.28
2022-09-12T19:24:28.088Z,98859.53
2022-09-12T19:26:56.876Z,98855.94
2022-09-12T19:29:24.137Z,98863.13
2022-09-12T19:31:51.449Z,98868.34
2022-09-12T19:34:21.042Z,98852.69
2022-09-12T19:36:48.484Z,98856.34
2022-09-12T19:39:17.775Z,98861.06
2022-09-12T19:41:45.705Z,98859.06
2022-09-12T19:44:19.357Z,98855.03
2022-09-12T19:46:57.648Z,98859.06
2022-09-12T19:49:28.078Z,98856.28
2022-09-12T19:52:00.595Z,98864.25
2022-09-12T19:54:27.700Z,98857.06
2022-09-12T19:56:55.958Z,98859.47
2022-09-12T19:59:24.036Z,98864.25
2022-09-12T20:01:51.303Z,98870.19
2022-09-12T20:04:18.621Z,98867.78
2022-09-12T20:06:45.799Z,98868.16
2022-09-12T20:09:24.995Z,98880.53
2022-09-12T20:11:55.485Z,98867.28
2022-09-12T20:14:26.630Z,98876.47
2022-09-12T20:16:55.540Z,98877.25
2022-09-12T20:19:23.524Z,98878.03
2022-09-12T20:21:53.310Z,98889.59
2022-09-12T20:24:20.655Z,98886.38
2022-09-12T20:26:47.837Z,98886.31
2022-09-12T20:29:14.950Z,98893.88
2022-09-12T20:31:42.672Z,98884.28
2022-09-12T20:34:20.508Z,98896.25
2022-09-12T20:36:49.022Z,98890.69
2022-09-12T20:39:19.968Z,98897.03
2022-09-12T20:41:47.974Z,98887.41
2022-09-12T20:44:18.952Z,98895.44
2022-09-12T20:46:46.877Z,98891.81
2022-09-12T20:49:14.057Z,98898.16
2022-09-12T20:51:41.519Z,98905.78
2022-09-12T20:54:08.742Z,98898.94
2022-09-12T20:56:48.639Z,98911.28
2022-09-12T20:59:17.194Z,98902.91
2022-09-12T21:01:46.119Z,98898.91
2022-09-12T21:04:15.348Z,98903.69
2022-09-12T21:06:42.635Z,98903.66
2022-09-12T21:09:09.993Z,98887.63
2022-09-12T21:11:40.604Z,98906.00
2022-09-12T21:14:08.105Z,98905.16
2022-09-12T21:16:38.753Z,98913.53
2022-09-12T21:19:07.965Z,98900.69
2022-09-12T21:21:38.390Z,98903.97
2022-09-12T21:24:09.500Z,98907.59
2022-09-12T21:26:38.462Z,98893.88
2022-09-12T21:29:06.367Z,98905.16
2022-09-12T21:31:49.057Z,98907.06
2022-09-12T21:34:16.133Z,98897.06
2022-09-12T21:36:43.478Z,98895.09
2022-09-12T21:39:10.823Z,98893.06
2022-09-12T21:41:37.995Z,98905.50
2022-09-12T21:44:05.401Z,98914.72
2022-09-12T21:46:32.967Z,98910.66
2022-09-12T21:49:01.635Z,98916.22
2022-09-12T21:51:29.246Z,98911.06
2022-09-12T21:53:57.621Z,98907.78
2022-09-12T21:56:24.861Z,98914.16
2022-09-12T21:58:52.005Z,98914.97
2022-09-12T22:01:19.479Z,98905.00
2022-09-12T22:03:46.688Z,98916.22
2022-09-12T22:06:14.418Z,98920.19
2022-09-12T22:08:41.938Z,98913.41
2022-09-12T22:11:11.043Z,98913.00
2022-09-12T22:13:43.831Z,98918.19
2022-09-12T22:16:15.239Z,98916.88
2022-09-12T22:18:42.245Z,98914.78
2022-09-12T22:21:13.095Z,98914.34
2022-09-12T22:23:59.328Z,98909.16
2022-09-12T22:26:29.574Z,98916.72
2022-09-12T22:28:57.273Z,98918.53
2022-09-12T22:31:24.531Z,98915.06
2022-09-12T22:33:54.341Z,98908.00
2022-09-12T22:36:30.492Z,98911.44
2022-09-12T22:39:00.657Z,98916.84
2022-09-12T22:41:32.101Z,98916.72
2022-09-12T22:44:00.021Z,98912.34
2022-09-12T22:46:27.732Z,98907.78
2022-09-12T22:48:55.933Z,98911.38
2022-09-12T22:51:23.451Z,98921.97
2022-09-12T22:53:51.578Z,98913.09
2022-09-12T22:56:19.160Z,98912.28
2022-09-12T22:58:46.269Z,98903.78
2022-09-12T23:01:15.904Z,98916.53
2022-09-12T23:03:44.422Z,98915.31
2022-09-12T23:06:12.489Z,98910.50
2022-09-12T23:08:46.001Z,98915.22
2022-09-12T23:11:16.728Z,98901.94
2022-09-12T23:13:46.849Z,98913.03
2022-09-12T23:16:25.781Z,98905.28
2022-09-12T23:18:53.087Z,98900.81
2022-09-12T23:21:22.115Z,98905.84
2022-09-12T23:23:49.888Z,98905.09
2022-09-12T23:26:28.326Z,98872.47
2022-09-12T23:29:02.342Z,98908.13
2022-09-12T23:31:32.848Z,98904.13
2022-09-12T23:34:06.210Z,98905.19
2022-09-12T23:36:34.295Z,98903.97
2022-09-12T23:39:02.190Z,98905.13
2022-09-12T23:41:30.188Z,98912.63
2022-09-12T23:43:57.896Z,98906.97
2022-09-12T23:46:25.184Z,98908.34
2022-09-12T23:48:56.131Z,98898.66
2022-09-12T23:51:24.174Z,98912.16
2022-09-12T23:53:54.163Z,98906.09
2022-09-12T23:56:22.365Z,98904.84
2022-09-12T23:58:49.824Z,98907.19
